createdAt,value
2018-03-19T00:00:59.065Z,19.10
2018-03-19T00:03:28.427Z,26.50
2018-03-19T00:05:57.522Z,29.73
2018-03-19T00:08:27.459Z,26.87
2018-03-19T00:10:56.492Z,24.17
2018-03-19T00:13:26.199Z,21.73
2018-03-19T00:15:54.480Z,22.00
2018-03-19T00:18:22.762Z,23.17
2018-03-19T00:20:52.041Z,27.00
2018-03-19T00:23:20.309Z,26.67
2018-03-19T00:25:48.573Z,27.17
2018-03-19T00:28:17.660Z,24.67
2018-03-19T00:30:47.556Z,25.57
2018-03-19T00:33:15.835Z,23.17
2018-03-19T00:35:44.115Z,25.90
2018-03-19T00:38:12.393Z,24.63
2018-03-19T00:40:40.656Z,23.97
2018-03-19T00:43:08.924Z,28.27
2018-03-19T00:45:37.226Z,22.87
2018-03-19T00:48:05.479Z,26.50
2018-03-19T00:50:33.796Z,26.10
2018-03-19T00:53:02.921Z,26.57
2018-03-19T00:55:31.188Z,23.17
2018-03-19T00:57:59.464Z,29.00
2018-03-19T01:00:27.741Z,27.40
2018-03-19T01:02:55.979Z,25.37
2018-03-19T01:05:25.021Z,25.13
2018-03-19T01:07:53.321Z,22.93
2018-03-19T01:10:21.641Z,23.80
2018-03-19T01:12:50.656Z,23.10
2018-03-19T01:15:18.908Z,28.93
2018-03-19T01:17:47.210Z,24.80
2018-03-19T01:20:15.455Z,25.00
2018-03-19T01:22:44.506Z,22.97
2018-03-19T01:25:12.754Z,25.23
2018-03-19T01:27:41.026Z,24.00
2018-03-19T01:30:09.280Z,23.57
2018-03-19T01:32:37.557Z,25.83
2018-03-19T01:35:05.816Z,24.33
2018-03-19T01:37:34.092Z,21.47
2018-03-19T01:40:02.356Z,24.33
2018-03-19T01:42:30.626Z,22.20
2018-03-19T01:44:58.891Z,24.60
2018-03-19T01:47:27.148Z,23.07
2018-03-19T01:49:55.433Z,22.47
2018-03-19T01:52:35.409Z,21.33
2018-03-19T01:55:03.657Z,24.50
2018-03-19T01:57:31.910Z,27.37
2018-03-19T02:00:00.172Z,21.73
2018-03-19T02:02:29.201Z,24.03
2018-03-19T02:04:57.492Z,22.43
2018-03-19T02:07:25.746Z,25.57
2018-03-19T02:09:54.017Z,27.57
2018-03-19T02:12:22.291Z,24.73
2018-03-19T02:14:50.552Z,22.73
2018-03-19T02:17:19.573Z,25.30
2018-03-19T02:19:47.855Z,21.50
2018-03-19T02:22:16.130Z,24.83
2018-03-19T02:24:44.376Z,25.13
2018-03-19T02:27:12.641Z,26.73
2018-03-19T02:29:41.675Z,22.47
2018-03-19T02:32:09.986Z,23.97
2018-03-19T02:34:39.000Z,25.83
2018-03-19T02:37:08.050Z,26.50
2018-03-19T02:39:36.310Z,25.23
2018-03-19T02:42:04.586Z,23.90
2018-03-19T02:44:32.838Z,23.50
2018-03-19T02:47:01.156Z,22.27
2018-03-19T02:49:29.422Z,25.77
2018-03-19T02:51:57.745Z,25.00
2018-03-19T02:54:25.984Z,26.67
2018-03-19T02:56:54.247Z,20.33
2018-03-19T02:59:22.544Z,23.80
2018-03-19T03:01:50.816Z,28.80
2018-03-19T03:04:19.079Z,22.20
2018-03-19T03:06:47.324Z,26.30
2018-03-19T03:09:15.612Z,31.03
2018-03-19T03:11:43.869Z,25.57
2018-03-19T03:14:12.896Z,22.70
2018-03-19T03:16:41.163Z,25.53
2018-03-19T03:19:09.432Z,24.93
2018-03-19T03:21:37.703Z,26.10
2018-03-19T03:24:05.952Z,24.40
2018-03-19T03:26:34.984Z,26.27
2018-03-19T03:29:03.255Z,22.67
2018-03-19T03:31:31.512Z,24.17
2018-03-19T03:33:59.791Z,24.83
2018-03-19T03:36:28.791Z,24.60
2018-03-19T03:38:57.064Z,24.40
2018-03-19T03:41:26.082Z,27.67
2018-03-19T03:43:54.360Z,23.57
2018-03-19T03:46:22.623Z,26.23
2018-03-19T03:48:50.900Z,22.73
2018-03-19T03:51:19.159Z,25.23
2018-03-19T03:53:48.168Z,26.23
2018-03-19T03:56:16.445Z,24.23
2018-03-19T03:58:44.690Z,23.00
2018-03-19T04:01:13.743Z,26.80
2018-03-19T04:03:42.004Z,22.17
2018-03-19T04:06:10.265Z,20.60
2018-03-19T04:08:38.525Z,22.97
2018-03-19T04:11:07.567Z,21.20
2018-03-19T04:13:35.828Z,22.10
2018-03-19T04:16:04.095Z,25.80
2018-03-19T04:18:32.367Z,21.90
2018-03-19T04:21:00.640Z,23.90
2018-03-19T04:23:28.921Z,24.73
2018-03-19T04:28:31.912Z,23.20
2018-03-19T04:31:00.193Z,24.57
2018-03-19T04:33:28.492Z,24.23
2018-03-19T04:35:56.766Z,23.73
2018-03-19T04:38:25.027Z,25.17
2018-03-19T04:40:53.303Z,22.17
2018-03-19T04:43:21.576Z,23.13
2018-03-19T04:45:49.840Z,22.67
2018-03-19T04:48:18.109Z,22.47
2018-03-19T04:50:47.132Z,22.97
2018-03-19T04:53:15.443Z,23.57
2018-03-19T04:55:43.730Z,21.63
2018-03-19T04:58:11.980Z,21.17
2018-03-19T05:00:40.264Z,24.23
2018-03-19T05:03:08.515Z,23.07
2018-03-19T05:05:36.786Z,22.23
2018-03-19T05:08:05.039Z,28.27
2018-03-19T05:10:33.311Z,21.37
2018-03-19T05:13:02.336Z,20.63
2018-03-19T05:15:30.616Z,23.27
2018-03-19T05:17:58.874Z,25.07
2018-03-19T05:20:27.160Z,21.80
2018-03-19T05:22:55.448Z,21.87
2018-03-19T05:25:23.687Z,21.53
2018-03-19T05:27:51.959Z,22.23
2018-03-19T05:30:20.244Z,25.50
2018-03-19T05:32:48.511Z,21.40
2018-03-19T05:35:16.757Z,24.67
2018-03-19T05:37:45.012Z,23.43
2018-03-19T05:40:13.269Z,22.00
2018-03-19T05:42:41.556Z,32.90
2018-03-19T05:45:09.811Z,25.90
2018-03-19T05:47:38.084Z,22.20
2018-03-19T05:50:06.357Z,26.07
2018-03-19T05:52:35.385Z,26.80
2018-03-19T05:55:03.664Z,25.23
2018-03-19T05:57:32.702Z,23.30
2018-03-19T06:00:00.985Z,28.13
2018-03-19T06:02:30.000Z,26.70
2018-03-19T06:04:58.255Z,28.53
2018-03-19T06:07:27.278Z,26.00
2018-03-19T06:09:55.552Z,25.73
2018-03-19T06:12:23.818Z,28.10
2018-03-19T06:14:52.151Z,23.83
2018-03-19T06:17:20.411Z,24.03
2018-03-19T06:19:48.792Z,29.77
2018-03-19T06:22:17.079Z,23.40
2018-03-19T06:24:45.324Z,25.70
2018-03-19T06:27:13.608Z,27.67
2018-03-19T06:29:42.672Z,26.83
2018-03-19T06:32:11.002Z,23.37
2018-03-19T06:34:39.240Z,27.33
2018-03-19T06:37:07.527Z,23.80
2018-03-19T06:39:35.768Z,25.13
2018-03-19T06:42:04.039Z,28.57
2018-03-19T06:44:32.292Z,25.87
2018-03-19T06:47:00.579Z,28.83
2018-03-19T06:49:29.660Z,23.13
2018-03-19T06:51:57.927Z,25.80
2018-03-19T06:54:26.197Z,27.33
2018-03-19T06:56:54.524Z,25.17
2018-03-19T06:59:22.791Z,26.20
2018-03-19T07:01:51.074Z,24.83
2018-03-19T07:04:19.368Z,25.77
2018-03-19T07:06:48.467Z,24.47
2018-03-19T07:09:16.781Z,31.73
2018-03-19T07:11:45.025Z,26.40
2018-03-19T07:14:13.312Z,28.60
2018-03-19T07:16:41.568Z,27.40
2018-03-19T07:19:09.875Z,28.43
2018-03-19T07:21:38.120Z,30.80
2018-03-19T07:24:06.408Z,33.10
2018-03-19T07:26:34.674Z,27.50
2018-03-19T07:29:02.995Z,26.20
2018-03-19T07:31:31.266Z,31.00
2018-03-19T07:33:59.567Z,30.67
2018-03-19T07:36:28.058Z,31.57
2018-03-19T07:38:57.349Z,26.30
2018-03-19T07:41:25.630Z,29.23
2018-03-19T07:43:54.697Z,29.60
2018-03-19T07:46:22.967Z,25.57
2018-03-19T07:48:51.205Z,31.10
2018-03-19T07:51:19.522Z,28.90
2018-03-19T07:53:47.794Z,26.30
2018-03-19T07:56:16.061Z,29.97
2018-03-19T07:58:44.328Z,27.47
2018-03-19T08:01:12.634Z,32.23
2018-03-19T08:03:40.999Z,30.97
2018-03-19T08:06:09.249Z,33.70
2018-03-19T08:08:37.539Z,27.63
2018-03-19T08:11:05.799Z,35.93
2018-03-19T08:13:34.976Z,33.07
2018-03-19T08:16:03.262Z,27.90
2018-03-19T08:18:31.529Z,28.13
2018-03-19T08:20:59.793Z,35.47
2018-03-19T08:23:28.079Z,33.67
2018-03-19T08:25:56.474Z,27.47
2018-03-19T08:28:24.749Z,29.37
2018-03-19T08:30:53.020Z,27.10
2018-03-19T08:33:21.280Z,30.30
2018-03-19T08:35:49.556Z,30.90
2018-03-19T08:38:17.880Z,33.03
2018-03-19T08:40:46.174Z,28.23
2018-03-19T08:43:14.452Z,34.00
2018-03-19T08:45:42.769Z,32.45
2018-03-19T08:48:11.035Z,31.02
2018-03-19T08:50:40.078Z,29.93
2018-03-19T08:53:08.360Z,37.50
2018-03-19T08:55:36.668Z,31.60
2018-03-19T08:58:04.931Z,32.00
2018-03-19T09:00:33.257Z,29.30
2018-03-19T09:03:01.676Z,27.73
2018-03-19T09:05:29.958Z,29.30
2018-03-19T09:07:58.209Z,30.07
2018-03-19T09:10:26.504Z,30.87
2018-03-19T09:12:54.757Z,27.20
2018-03-19T09:15:23.041Z,27.40
2018-03-19T09:17:51.329Z,29.40
2018-03-19T09:20:19.626Z,29.37
2018-03-19T09:22:47.893Z,26.83
2018-03-19T09:25:16.179Z,26.63
2018-03-19T09:27:44.453Z,28.37
2018-03-19T09:30:12.724Z,30.77
2018-03-19T09:32:41.008Z,29.10
2018-03-19T09:35:09.306Z,25.83
2018-03-19T09:37:37.546Z,29.20
2018-03-19T09:40:05.929Z,29.10
2018-03-19T09:42:34.160Z,28.07
2018-03-19T09:45:02.442Z,26.27
2018-03-19T09:47:30.825Z,31.60
2018-03-19T09:49:59.081Z,25.83
2018-03-19T09:52:27.433Z,28.27
2018-03-19T09:54:55.723Z,29.17
2018-03-19T09:57:24.782Z,26.60
2018-03-19T09:59:53.060Z,32.07
2018-03-19T10:02:21.409Z,32.73
2018-03-19T10:04:49.681Z,30.37
2018-03-19T10:07:18.008Z,31.60
2018-03-19T10:09:46.262Z,29.17
2018-03-19T10:12:14.541Z,33.60
2018-03-19T10:14:42.810Z,27.47
2018-03-19T10:17:11.081Z,30.17
2018-03-19T10:19:39.346Z,33.30
2018-03-19T10:22:07.690Z,30.77
2018-03-19T10:24:36.018Z,30.20
2018-03-19T10:27:04.284Z,31.60
2018-03-19T10:29:32.785Z,28.13
2018-03-19T10:32:01.064Z,32.60
2018-03-19T10:34:29.319Z,30.20
2018-03-19T10:36:57.593Z,27.83
2018-03-19T10:39:25.868Z,30.33
2018-03-19T10:41:54.123Z,31.70
2018-03-19T10:44:22.515Z,27.90
2018-03-19T10:46:50.764Z,28.97
2018-03-19T10:49:19.054Z,27.30
2018-03-19T10:51:48.106Z,32.63
2018-03-19T10:54:16.368Z,34.43
2018-03-19T10:56:44.627Z,28.87
2018-03-19T10:59:12.923Z,33.53
2018-03-19T11:01:42.976Z,31.73
2018-03-19T11:04:11.316Z,28.10
2018-03-19T11:06:45.347Z,29.27
2018-03-19T11:09:20.156Z,27.70
2018-03-19T11:11:48.441Z,29.17
2018-03-19T11:14:16.741Z,30.37
2018-03-19T11:16:46.483Z,36.20
2018-03-19T11:19:15.571Z,30.03
2018-03-19T11:21:43.980Z,29.03
2018-03-19T11:24:12.257Z,34.10
2018-03-19T11:26:40.523Z,32.03
2018-03-19T11:29:08.774Z,28.20
2018-03-19T11:31:37.049Z,30.07
2018-03-19T11:34:05.305Z,30.87
2018-03-19T11:36:33.613Z,28.10
2018-03-19T11:39:01.850Z,31.00
2018-03-19T11:41:31.321Z,27.37
2018-03-19T11:43:59.561Z,32.20
2018-03-19T11:46:27.844Z,33.07
2018-03-19T11:48:56.254Z,32.40
2018-03-19T11:51:24.507Z,30.13
2018-03-19T11:53:53.092Z,33.10
2018-03-19T11:56:21.353Z,30.37
2018-03-19T11:58:49.632Z,32.07
2018-03-19T12:01:17.996Z,34.03
2018-03-19T12:03:46.267Z,31.60
2018-03-19T12:06:14.518Z,31.73
2018-03-19T12:08:43.432Z,30.13
2018-03-19T12:11:11.721Z,30.73
2018-03-19T12:13:40.003Z,27.40
2018-03-19T12:16:08.264Z,26.93
2018-03-19T12:18:36.572Z,27.77
2018-03-19T12:21:04.858Z,30.03
2018-03-19T12:23:33.240Z,28.60
2018-03-19T12:26:01.504Z,31.37
2018-03-19T12:28:29.772Z,35.03
2018-03-19T12:30:58.032Z,33.43
2018-03-19T12:33:26.310Z,35.27
2018-03-19T12:35:54.584Z,28.53
2018-03-19T12:38:22.872Z,26.27
2018-03-19T12:40:51.366Z,30.83
2018-03-19T12:43:19.615Z,28.73
2018-03-19T12:45:47.893Z,30.03
2018-03-19T12:48:16.167Z,28.80
2018-03-19T12:50:44.537Z,34.87
2018-03-19T12:53:12.909Z,29.07
2018-03-19T12:55:41.942Z,29.50
2018-03-19T12:58:10.348Z,28.20
2018-03-19T13:00:38.643Z,31.17
2018-03-19T13:03:07.693Z,29.93
2018-03-19T13:05:35.956Z,30.17
2018-03-19T13:08:04.243Z,29.17
2018-03-19T13:10:32.520Z,28.77
2018-03-19T13:13:00.900Z,30.47
2018-03-19T13:15:29.992Z,29.50
2018-03-19T13:17:58.345Z,31.43
2018-03-19T13:20:26.692Z,30.13
2018-03-19T13:22:54.954Z,33.23
2018-03-19T13:25:24.496Z,31.47
2018-03-19T13:27:54.129Z,32.53
2018-03-19T13:30:22.639Z,31.23
2018-03-19T13:32:50.923Z,29.90
2018-03-19T13:35:19.325Z,27.93
2018-03-19T13:37:47.588Z,27.70
2018-03-19T13:40:15.968Z,30.93
2018-03-19T13:42:44.233Z,31.03
2018-03-19T13:45:12.517Z,26.87
2018-03-19T13:47:40.794Z,31.83
2018-03-19T13:50:09.074Z,28.67
2018-03-19T13:52:37.339Z,26.13
2018-03-19T13:55:05.606Z,27.43
2018-03-19T13:57:33.881Z,25.30
2018-03-19T14:00:02.149Z,28.97
2018-03-19T14:02:30.483Z,27.87
2018-03-19T14:04:58.751Z,28.77
2018-03-19T14:07:27.049Z,28.00
2018-03-19T14:09:55.307Z,28.23
2018-03-19T14:12:24.340Z,27.23
2018-03-19T14:14:52.606Z,25.07
2018-03-19T14:17:20.868Z,26.67
2018-03-19T14:19:49.145Z,27.27
2018-03-19T14:22:17.394Z,28.93
2018-03-19T14:24:45.681Z,26.43
2018-03-19T14:27:13.975Z,28.70
2018-03-19T14:29:42.251Z,30.90
2018-03-19T14:32:10.521Z,28.30
2018-03-19T14:34:38.834Z,28.43
2018-03-19T14:37:07.119Z,33.23
2018-03-19T14:39:35.470Z,25.33
2018-03-19T14:42:03.750Z,26.57
2018-03-19T14:44:32.035Z,33.83
2018-03-19T14:47:00.342Z,26.03
2018-03-19T14:49:28.601Z,32.20
2018-03-19T14:51:58.364Z,31.97
2018-03-19T14:54:26.717Z,28.20
2018-03-19T14:56:54.978Z,30.10
2018-03-19T14:59:23.227Z,29.13
2018-03-19T15:01:51.506Z,36.80
2018-03-19T15:04:19.798Z,30.10
2018-03-19T15:06:48.933Z,29.93
2018-03-19T15:09:18.158Z,31.00
2018-03-19T15:11:46.486Z,34.30
2018-03-19T15:14:14.777Z,35.00
2018-03-19T15:16:43.428Z,31.97
2018-03-19T15:19:11.676Z,33.00
2018-03-19T15:21:39.961Z,34.40
2018-03-19T15:24:08.221Z,32.63
2018-03-19T15:26:36.519Z,34.73
2018-03-19T15:29:04.796Z,32.17
2018-03-19T15:31:33.057Z,41.03
2018-03-19T15:34:01.412Z,33.97
2018-03-19T15:36:29.673Z,34.37
2018-03-19T15:38:58.004Z,33.90
2018-03-19T15:41:26.843Z,35.90
2018-03-19T15:43:55.182Z,36.37
2018-03-19T15:46:23.477Z,32.97
2018-03-19T15:48:51.783Z,34.77
2018-03-19T15:51:20.842Z,32.80
2018-03-19T15:53:49.128Z,41.93
2018-03-19T15:56:17.376Z,34.17
2018-03-19T15:58:45.879Z,30.00
2018-03-19T16:01:14.176Z,36.47
2018-03-19T16:03:43.206Z,33.87
2018-03-19T16:06:11.493Z,32.90
2018-03-19T16:08:39.742Z,34.63
2018-03-19T16:11:08.044Z,33.53
2018-03-19T16:13:36.343Z,32.03
2018-03-19T16:16:05.430Z,35.93
2018-03-19T16:18:33.698Z,29.30
2018-03-19T16:21:02.264Z,39.20
2018-03-19T16:26:04.953Z,32.90
2018-03-19T16:28:33.221Z,31.13
2018-03-19T16:31:01.492Z,34.13
2018-03-19T16:33:30.533Z,28.60
2018-03-19T16:35:58.812Z,30.07
2018-03-19T16:38:27.090Z,30.93
2018-03-19T16:40:55.408Z,35.97
2018-03-19T16:43:24.468Z,32.00
2018-03-19T16:45:52.732Z,36.87
2018-03-19T16:48:20.996Z,31.43
2018-03-19T16:50:49.252Z,29.33
2018-03-19T16:53:17.553Z,33.37
2018-03-19T16:55:45.895Z,30.53
2018-03-19T16:58:14.177Z,24.63
2018-03-19T17:00:42.479Z,34.87
2018-03-19T17:03:10.750Z,26.07
2018-03-19T17:05:39.726Z,29.83
2018-03-19T17:08:08.700Z,26.83
2018-03-19T17:10:36.993Z,26.00
2018-03-19T17:13:05.333Z,23.63
2018-03-19T17:15:33.704Z,29.00
2018-03-19T17:18:01.957Z,28.30
2018-03-19T17:20:31.023Z,22.67
2018-03-19T17:23:00.861Z,28.60
2018-03-19T17:25:29.115Z,25.43
2018-03-19T17:27:57.412Z,27.17
2018-03-19T17:30:25.731Z,26.27
2018-03-19T17:32:54.009Z,26.57
2018-03-19T17:35:22.270Z,25.40
2018-03-19T17:37:50.665Z,26.50
2018-03-19T17:40:19.749Z,26.23
2018-03-19T17:42:48.023Z,29.17
2018-03-19T17:45:16.341Z,31.20
2018-03-19T17:47:44.636Z,29.93
2018-03-19T17:50:12.906Z,29.93
2018-03-19T17:52:41.160Z,30.40
2018-03-19T17:55:10.277Z,28.77
2018-03-19T17:57:38.556Z,29.47
2018-03-19T18:00:07.474Z,26.87
2018-03-19T18:02:35.743Z,29.63
2018-03-19T18:05:04.004Z,30.43
2018-03-19T18:07:32.282Z,28.53
2018-03-19T18:10:00.578Z,30.80
2018-03-19T18:12:28.854Z,26.50
2018-03-19T18:14:57.136Z,26.00
2018-03-19T18:17:25.426Z,29.30
2018-03-19T18:19:54.198Z,27.93
2018-03-19T18:22:22.515Z,27.33
2018-03-19T18:24:50.833Z,27.53
2018-03-19T18:27:19.174Z,25.17
2018-03-19T18:29:47.440Z,28.60
2018-03-19T18:32:16.465Z,28.73
2018-03-19T18:34:45.522Z,26.00
2018-03-19T18:37:13.786Z,26.17
2018-03-19T18:39:42.091Z,25.40
2018-03-19T18:42:11.135Z,25.63
2018-03-19T18:44:39.468Z,30.63
2018-03-19T18:47:08.430Z,21.60
2018-03-19T18:49:36.723Z,25.13
2018-03-19T18:52:05.761Z,25.43
2018-03-19T18:54:34.054Z,25.90
2018-03-19T18:57:02.380Z,25.53
2018-03-19T18:59:32.275Z,23.50
2018-03-19T19:02:02.081Z,25.57
2018-03-19T19:04:30.442Z,22.00
2018-03-19T19:06:58.737Z,19.70
2018-03-19T19:09:27.026Z,22.70
2018-03-19T19:11:56.075Z,23.20
2018-03-19T19:14:24.385Z,23.73
2018-03-19T19:16:52.637Z,22.77
2018-03-19T19:19:20.954Z,24.67
2018-03-19T19:21:50.028Z,24.73
2018-03-19T19:24:18.464Z,20.67
2018-03-19T19:26:46.853Z,27.17
2018-03-19T19:29:15.164Z,21.17
2018-03-19T19:31:43.425Z,28.60
2018-03-19T19:34:11.740Z,21.60
2018-03-19T19:36:40.785Z,20.13
2018-03-19T19:39:09.076Z,24.97
2018-03-19T19:41:37.386Z,19.43
2018-03-19T19:44:06.400Z,20.07
2018-03-19T19:46:34.698Z,22.00
2018-03-19T19:49:02.976Z,22.20
2018-03-19T19:51:31.291Z,22.77
2018-03-19T19:53:59.601Z,21.07
2018-03-19T19:56:27.863Z,21.97
2018-03-19T19:58:56.166Z,23.23
2018-03-19T20:01:24.441Z,19.83
2018-03-19T20:03:52.737Z,20.00
2018-03-19T20:06:21.037Z,23.33
2018-03-19T20:08:50.113Z,20.87
2018-03-19T20:11:18.414Z,19.03
2018-03-19T20:13:46.706Z,18.93
2018-03-19T20:16:15.043Z,24.50
2018-03-19T20:18:43.320Z,21.10
2018-03-19T20:21:11.681Z,19.50
2018-03-19T20:23:39.987Z,21.77
2018-03-19T20:26:12.365Z,20.33
2018-03-19T20:28:40.651Z,20.47
2018-03-19T20:31:08.939Z,22.30
2018-03-19T20:33:37.277Z,22.00
2018-03-19T20:36:05.658Z,21.47
2018-03-19T20:38:33.924Z,20.90
2018-03-19T20:41:02.232Z,21.37
2018-03-19T20:43:30.529Z,20.30
2018-03-19T20:45:59.585Z,20.77
2018-03-19T20:48:27.933Z,19.93
2018-03-19T20:50:56.222Z,20.43
2018-03-19T20:53:24.523Z,20.23
2018-03-19T20:58:27.425Z,18.87
2018-03-19T21:00:55.737Z,22.33
2018-03-19T21:03:24.775Z,18.23
2018-03-19T21:05:53.108Z,19.20
2018-03-19T21:08:22.217Z,20.00
2018-03-19T21:10:50.490Z,20.63
2018-03-19T21:13:20.028Z,26.03
2018-03-19T21:15:48.291Z,24.70
2018-03-19T21:18:16.560Z,21.33
2018-03-19T21:20:44.825Z,23.63
2018-03-19T21:23:14.028Z,25.33
2018-03-19T21:25:42.349Z,24.07
2018-03-19T21:28:12.149Z,26.60
2018-03-19T21:30:40.455Z,27.47
2018-03-19T21:33:09.381Z,26.87
2018-03-19T21:35:37.834Z,24.40
2018-03-19T21:38:06.075Z,25.20
2018-03-19T21:40:34.382Z,26.97
2018-03-19T21:43:02.696Z,24.77
2018-03-19T21:45:31.017Z,21.23
2018-03-19T21:47:59.278Z,21.40
2018-03-19T21:50:27.564Z,23.90
2018-03-19T21:52:55.965Z,27.03
2018-03-19T21:55:24.285Z,24.77
2018-03-19T21:57:52.589Z,21.10
2018-03-19T22:00:20.917Z,26.90
2018-03-19T22:02:51.453Z,26.23
2018-03-19T22:05:19.737Z,25.63
2018-03-19T22:07:48.144Z,26.35
2018-03-19T22:10:16.482Z,26.53
2018-03-19T22:12:44.779Z,27.17
2018-03-19T22:15:13.291Z,26.33
2018-03-19T22:17:41.683Z,26.90
2018-03-19T22:20:09.965Z,27.13
2018-03-19T22:22:38.247Z,27.23
2018-03-19T22:25:06.535Z,26.80
2018-03-19T22:27:34.901Z,25.80
2018-03-19T22:30:03.192Z,26.20
2018-03-19T22:32:32.304Z,27.67
2018-03-19T22:35:00.589Z,26.00
2018-03-19T22:37:28.873Z,25.73
2018-03-19T22:39:57.132Z,27.13
2018-03-19T22:42:26.193Z,24.70
2018-03-19T22:44:54.909Z,24.47
2018-03-19T22:47:23.950Z,24.60
2018-03-19T22:49:52.213Z,26.23
2018-03-19T22:52:20.502Z,26.20
2018-03-19T22:54:48.838Z,25.17
2018-03-19T22:57:17.872Z,24.80
2018-03-19T22:59:46.436Z,28.57
2018-03-19T23:02:14.716Z,27.47
2018-03-19T23:07:44.565Z,23.93
2018-03-19T23:10:12.852Z,23.70
2018-03-19T23:12:41.265Z,26.07
2018-03-19T23:15:09.567Z,24.97
2018-03-19T23:17:37.872Z,23.70
2018-03-19T23:20:06.225Z,22.47
2018-03-19T23:22:34.507Z,25.20
2018-03-19T23:25:02.838Z,22.47
2018-03-19T23:27:31.108Z,24.27
2018-03-19T23:29:59.412Z,20.73
2018-03-19T23:32:27.682Z,25.50
2018-03-19T23:34:56.026Z,23.43
2018-03-19T23:37:24.308Z,22.20
2018-03-19T23:39:52.682Z,21.20
2018-03-19T23:42:20.982Z,24.67
2018-03-19T23:44:49.304Z,25.67
2018-03-19T23:47:17.626Z,23.60
2018-03-19T23:49:45.946Z,23.13
2018-03-19T23:52:14.297Z,21.37
2018-03-19T23:54:42.595Z,24.20
2018-03-19T23:57:11.763Z,25.13
2018-03-19T23:59:40.061Z,26.20
